Time;durP1;ratioP1;P1;durP2;ratioP2;P2;SDS_P1;SDS_P2;PMS_P1;PMS_P2;Temp;Humidity;BMP_temperature;BMP_pressure;BME280_temperature;BME280_humidity;BME280_pressure;Samples;Min_cycle;Max_cycle;Signal;HPM_P1;HPM_P2
2022/01/19 00:01:27;;;;;;;3.67;3.37;;;;;;;;;;5034984;28;20209;-79
2022/01/19 00:03:54;;;;;;;3.23;3.03;;;;;;;;;;5034559;28;20238;-79
2022/01/19 00:06:21;;;;;;;3.83;3.53;;;;;;;;;;5036043;28;20232;-79
2022/01/19 00:08:49;;;;;;;3.80;3.50;;;;;;;;;;5035395;28;20245;-78
2022/01/19 00:11:17;;;;;;;4.73;3.30;;;;;;;;;;5035190;28;20205;-79
2022/01/19 00:13:45;;;;;;;3.80;3.50;;;;;;;;;;5035084;28;20241;-79
2022/01/19 00:16:12;;;;;;;4.00;3.70;;;;;;;;;;5036069;28;20249;-79
2022/01/19 00:18:39;;;;;;;3.80;3.40;;;;;;;;;;5036005;28;20759;-79
2022/01/19 00:21:06;;;;;;;3.60;3.30;;;;;;;;;;5035882;28;20233;-79
2022/01/19 00:23:33;;;;;;;3.80;3.50;;;;;;;;;;5034479;28;20262;-79
2022/01/19 00:26:00;;;;;;;3.87;3.33;;;;;;;;;;5035974;28;20232;-79
2022/01/19 00:28:28;;;;;;;3.70;3.40;;;;;;;;;;5035473;28;20243;-79
2022/01/19 00:30:55;;;;;;;5.63;3.83;;;;;;;;;;5035930;28;20225;-79
2022/01/19 00:33:23;;;;;;;4.10;3.80;;;;;;;;;;5034662;28;20255;-78
2022/01/19 00:35:51;;;;;;;5.53;3.33;;;;;;;;;;5034996;28;20225;-78
2022/01/19 00:38:18;;;;;;;3.93;3.53;;;;;;;;;;5034978;28;20238;-80
2022/01/19 00:40:46;;;;;;;3.40;3.20;;;;;;;;;;5035473;28;20206;-79
2022/01/19 00:43:14;;;;;;;3.40;3.07;;;;;;;;;;5034824;28;20233;-79
2022/01/19 00:45:42;;;;;;;3.33;3.13;;;;;;;;;;5035524;28;20226;-79
2022/01/19 00:48:09;;;;;;;3.80;3.50;;;;;;;;;;5035529;28;20234;-79
2022/01/19 00:50:36;;;;;;;3.83;3.43;;;;;;;;;;5034773;28;20245;-79
2022/01/19 00:53:03;;;;;;;3.60;3.40;;;;;;;;;;5034826;28;20242;-79
2022/01/19 00:55:30;;;;;;;3.53;3.23;;;;;;;;;;5034620;28;20219;-79
2022/01/19 00:57:58;;;;;;;3.27;3.07;;;;;;;;;;5034857;28;20237;-79
2022/01/19 01:00:27;;;;;;;3.30;3.10;;;;;;;;;;5035232;28;20198;-79
2022/01/19 01:02:55;;;;;;;3.10;2.90;;;;;;;;;;5034800;28;20265;-79
2022/01/19 01:05:23;;;;;;;3.30;3.10;;;;;;;;;;5035031;28;20252;-80
2022/01/19 01:07:50;;;;;;;3.87;3.60;;;;;;;;;;5034767;28;20257;-79
2022/01/19 01:10:17;;;;;;;3.30;3.10;;;;;;;;;;5034946;28;20238;-79
2022/01/19 01:12:48;;;;;;;4.30;3.27;;;;;;;;;;5034221;28;20237;-79
2022/01/19 01:15:28;;;;;;;3.63;3.17;;;;;;;;;;5034392;28;20207;-79
2022/01/19 01:20:42;;;;;;;3.47;3.17;;;;;;;;;;5034803;28;20212;-79
2022/01/19 01:23:10;;;;;;;3.00;2.80;;;;;;;;;;5034196;28;20238;-79
2022/01/19 01:25:37;;;;;;;2.83;2.63;;;;;;;;;;5034144;28;20283;-79
2022/01/19 01:28:05;;;;;;;4.83;3.17;;;;;;;;;;5033929;28;20229;-79
2022/01/19 01:30:32;;;;;;;3.40;3.20;;;;;;;;;;5034278;28;20223;-79
2022/01/19 01:33:00;;;;;;;2.67;2.43;;;;;;;;;;5033861;28;20718;-80
2022/01/19 01:35:27;;;;;;;3.37;3.03;;;;;;;;;;5033550;28;20252;-79
2022/01/19 01:37:54;;;;;;;3.43;3.23;;;;;;;;;;5033822;28;20237;-79
2022/01/19 01:40:24;;;;;;;3.37;2.80;;;;;;;;;;5034247;28;20248;-79
2022/01/19 01:42:52;;;;;;;3.30;3.00;;;;;;;;;;5033573;28;20306;-79
2022/01/19 01:45:24;;;;;;;2.97;2.77;;;;;;;;;;5033989;28;20269;-79
2022/01/19 01:48:00;;;;;;;4.30;2.90;;;;;;;;;;5033918;28;20649;-79
2022/01/19 01:53:28;;;;;;;3.83;3.20;;;;;;;;;;5033323;28;20749;-79
2022/01/19 01:55:57;;;;;;;2.90;2.70;;;;;;;;;;5033796;28;20226;-79
2022/01/19 01:58:24;;;;;;;2.90;2.70;;;;;;;;;;5033970;28;20243;-79
2022/01/19 02:00:53;;;;;;;3.27;2.97;;;;;;;;;;5034787;28;20204;-79
2022/01/19 02:03:20;;;;;;;3.57;2.83;;;;;;;;;;5033757;28;20260;-79
2022/01/19 02:06:07;;;;;;;2.83;2.63;;;;;;;;;;5034120;28;20233;-79
2022/01/19 02:08:40;;;;;;;4.87;3.03;;;;;;;;;;5032851;28;20292;-80
2022/01/19 02:11:31;;;;;;;3.03;2.83;;;;;;;;;;5033826;28;20221;-79
2022/01/19 02:16:52;;;;;;;3.27;2.97;;;;;;;;;;5033199;28;20224;-79
2022/01/19 02:22:05;;;;;;;3.10;2.80;;;;;;;;;;5033544;28;20224;-79
2022/01/19 02:24:41;;;;;;;3.30;3.00;;;;;;;;;;5013904;28;20299;-80
2022/01/19 02:27:15;;;;;;;3.50;3.20;;;;;;;;;;5029747;28;20224;-79
2022/01/19 02:40:56;;;;;;;3.50;3.30;;;;;;;;;;5029447;28;20216;-79
2022/01/19 02:43:26;;;;;;;4.50;3.30;;;;;;;;;;5035580;28;20329;-79
2022/01/19 02:51:23;;;;;;;4.67;4.23;;;;;;;;;;5048555;28;20254;-80
2022/01/19 02:53:51;;;;;;;4.83;4.43;;;;;;;;;;5037321;28;20248;-80
2022/01/19 02:56:24;;;;;;;5.27;4.77;;;;;;;;;;5036759;28;20225;-79
2022/01/19 02:58:55;;;;;;;5.40;4.90;;;;;;;;;;5037500;28;20689;-80
2022/01/19 03:09:38;;;;;;;6.23;5.20;;;;;;;;;;5035133;28;20227;-80
2022/01/19 03:12:06;;;;;;;6.63;4.87;;;;;;;;;;5034412;28;20209;-80
2022/01/19 03:14:33;;;;;;;6.37;5.60;;;;;;;;;;5035146;28;20209;-80
2022/01/19 03:17:00;;;;;;;6.77;5.50;;;;;;;;;;5034162;28;20639;-80
2022/01/19 03:19:29;;;;;;;5.17;4.50;;;;;;;;;;5035076;28;20203;-80
2022/01/19 03:21:56;;;;;;;6.07;5.47;;;;;;;;;;5033668;28;20240;-80
2022/01/19 03:24:23;;;;;;;5.27;4.77;;;;;;;;;;5034220;28;20302;-80
2022/01/19 03:26:52;;;;;;;6.20;5.60;;;;;;;;;;5034048;28;20230;-80
2022/01/19 03:29:19;;;;;;;9.63;5.20;;;;;;;;;;5033775;28;20566;-79
2022/01/19 03:31:46;;;;;;;7.70;5.47;;;;;;;;;;5033994;28;20253;-80
2022/01/19 03:34:13;;;;;;;12.47;6.50;;;;;;;;;;5034230;28;20245;-79
2022/01/19 03:36:40;;;;;;;6.93;5.77;;;;;;;;;;5034752;28;20234;-79
2022/01/19 03:39:07;;;;;;;5.60;5.10;;;;;;;;;;5033857;28;20722;-80
2022/01/19 03:41:34;;;;;;;6.00;5.50;;;;;;;;;;5034246;28;20281;-79
2022/01/19 03:44:03;;;;;;;8.10;6.47;;;;;;;;;;5033905;28;20241;-79
2022/01/19 03:46:33;;;;;;;7.40;6.53;;;;;;;;;;5033714;28;20225;-80
2022/01/19 03:49:09;;;;;;;9.27;6.77;;;;;;;;;;5033322;28;20257;-79
2022/01/19 03:51:36;;;;;;;6.83;6.13;;;;;;;;;;5033821;28;20225;-79
2022/01/19 03:54:04;;;;;;;7.67;6.37;;;;;;;;;;5033762;28;20234;-80
2022/01/19 03:56:31;;;;;;;7.10;5.97;;;;;;;;;;5025869;28;20226;-79
2022/01/19 03:58:58;;;;;;;7.27;6.57;;;;;;;;;;5019469;28;20241;-80
2022/01/19 04:01:26;;;;;;;7.33;6.17;;;;;;;;;;5033113;28;20209;-79
2022/01/19 04:06:57;;;;;;;6.17;5.53;;;;;;;;;;5027178;28;20287;-79
2022/01/19 04:09:24;;;;;;;7.23;6.23;;;;;;;;;;5016077;28;20236;-79
2022/01/19 04:11:51;;;;;;;7.50;5.27;;;;;;;;;;5027098;28;20218;-79
2022/01/19 04:14:25;;;;;;;7.23;6.03;;;;;;;;;;5024304;28;20563;-79
2022/01/19 04:16:55;;;;;;;8.87;5.63;;;;;;;;;;5013142;28;20230;-80
2022/01/19 04:19:26;;;;;;;7.50;5.97;;;;;;;;;;5014726;28;20205;-79
2022/01/19 04:21:54;;;;;;;8.40;6.73;;;;;;;;;;5021988;28;20694;-80
2022/01/19 04:24:22;;;;;;;6.23;5.70;;;;;;;;;;5032937;28;20686;-79
2022/01/19 04:29:41;;;;;;;9.17;6.53;;;;;;;;;;5041906;28;20763;-80
2022/01/19 04:32:13;;;;;;;7.83;6.50;;;;;;;;;;5052639;28;20319;-80
2022/01/19 04:34:43;;;;;;;6.23;5.63;;;;;;;;;;5054831;28;20205;-80
2022/01/19 04:37:28;;;;;;;8.30;6.50;;;;;;;;;;5035749;28;20654;-80
2022/01/19 04:45:57;;;;;;;7.33;6.17;;;;;;;;;;5037581;28;20252;-79
2022/01/19 04:48:58;;;;;;;8.90;7.27;;;;;;;;;;5036637;28;20702;-80
2022/01/19 05:02:43;;;;;;;13.00;7.80;;;;;;;;;;5036641;28;20293;-80
2022/01/19 05:05:18;;;;;;;9.03;7.43;;;;;;;;;;5036445;28;20258;-80
2022/01/19 05:07:55;;;;;;;8.73;7.50;;;;;;;;;;5036672;28;20244;-80
2022/01/19 05:15:49;;;;;;;9.37;8.20;;;;;;;;;;5036252;28;20221;-80
2022/01/19 05:18:16;;;;;;;9.00;7.63;;;;;;;;;;5036514;28;20639;-80
2022/01/19 05:20:45;;;;;;;11.30;7.60;;;;;;;;;;5040124;28;20266;-80
2022/01/19 05:23:13;;;;;;;9.23;7.30;;;;;;;;;;5036157;28;20264;-80
2022/01/19 05:25:40;;;;;;;8.27;7.07;;;;;;;;;;5036423;28;20242;-80
2022/01/19 05:28:07;;;;;;;12.57;7.93;;;;;;;;;;5036204;28;20230;-80
2022/01/19 05:30:34;;;;;;;8.70;7.17;;;;;;;;;;5036549;28;20736;-80
2022/01/19 05:33:01;;;;;;;10.37;7.93;;;;;;;;;;5036423;28;20722;-80
2022/01/19 05:35:30;;;;;;;11.67;8.03;;;;;;;;;;5035627;28;20231;-80
2022/01/19 05:37:58;;;;;;;10.03;7.77;;;;;;;;;;5037078;28;20257;-81
2022/01/19 05:40:25;;;;;;;9.60;7.37;;;;;;;;;;5037186;28;20214;-79
2022/01/19 05:42:53;;;;;;;9.37;7.47;;;;;;;;;;5035355;28;20288;-80
2022/01/19 05:45:20;;;;;;;11.40;7.70;;;;;;;;;;5035741;28;20280;-80
2022/01/19 05:47:48;;;;;;;13.67;8.73;;;;;;;;;;5035913;28;20237;-80
2022/01/19 05:50:15;;;;;;;10.60;9.03;;;;;;;;;;5035671;28;20619;-80
2022/01/19 05:52:42;;;;;;;10.23;8.60;;;;;;;;;;5035548;28;20393;-80
2022/01/19 05:55:11;;;;;;;11.67;9.33;;;;;;;;;;5035722;28;20783;-80
2022/01/19 05:57:39;;;;;;;12.70;9.93;;;;;;;;;;5035239;28;20230;-80
2022/01/19 06:00:07;;;;;;;59.50;30.17;;;;;;;;;;5035642;28;20606;-80
2022/01/19 06:02:34;;;;;;;35.47;19.37;;;;;;;;;;5035323;28;20237;-80
2022/01/19 06:05:01;;;;;;;38.20;20.80;;;;;;;;;;5035726;28;20592;-80
2022/01/19 06:07:30;;;;;;;16.30;11.73;;;;;;;;;;5036895;28;20602;-81
2022/01/19 06:10:04;;;;;;;8.93;8.00;;;;;;;;;;5037330;28;20214;-83
2022/01/19 06:12:33;;;;;;;10.87;8.37;;;;;;;;;;5033502;28;20261;-83
2022/01/19 06:15:00;;;;;;;11.90;9.00;;;;;;;;;;5034192;28;20211;-84
2022/01/19 06:17:28;;;;;;;10.90;8.43;;;;;;;;;;5038048;28;20254;-82
2022/01/19 06:19:55;;;;;;;12.20;9.47;;;;;;;;;;5038958;28;20589;-82
2022/01/19 06:22:22;;;;;;;10.53;8.23;;;;;;;;;;5037787;28;20241;-82
2022/01/19 06:24:49;;;;;;;12.20;9.40;;;;;;;;;;5038175;28;20207;-82
2022/01/19 06:27:16;;;;;;;17.70;9.23;;;;;;;;;;5037936;28;20234;-82
2022/01/19 06:29:45;;;;;;;12.03;9.33;;;;;;;;;;5039966;28;20702;-82
2022/01/19 06:32:12;;;;;;;12.50;9.60;;;;;;;;;;5026313;28;20628;-84
2022/01/19 06:34:39;;;;;;;13.57;9.80;;;;;;;;;;5033371;28;20213;-83
2022/01/19 06:37:06;;;;;;;14.60;9.60;;;;;;;;;;5033074;28;20238;-83
2022/01/19 06:39:33;;;;;;;12.03;9.83;;;;;;;;;;5033558;28;20218;-83
2022/01/19 06:42:00;;;;;;;12.63;9.87;;;;;;;;;;5033148;28;20574;-83
2022/01/19 06:44:27;;;;;;;17.93;9.67;;;;;;;;;;5033240;28;20207;-83
2022/01/19 06:46:56;;;;;;;16.47;10.57;;;;;;;;;;5033265;28;20226;-83
2022/01/19 06:49:24;;;;;;;10.67;9.10;;;;;;;;;;5034137;28;20226;-83
2022/01/19 06:51:51;;;;;;;17.53;10.67;;;;;;;;;;5034308;28;20226;-83
2022/01/19 06:54:18;;;;;;;13.77;9.67;;;;;;;;;;5034055;28;20203;-83
2022/01/19 06:56:45;;;;;;;12.10;9.33;;;;;;;;;;5033804;28;20226;-84
2022/01/19 06:59:15;;;;;;;13.87;9.83;;;;;;;;;;5033574;28;20241;-83
2022/01/19 07:01:42;;;;;;;11.70;9.13;;;;;;;;;;5034418;28;20632;-83
2022/01/19 07:04:14;;;;;;;13.70;9.03;;;;;;;;;;5033326;28;20242;-83
2022/01/19 07:06:41;;;;;;;13.33;9.53;;;;;;;;;;5035469;28;20326;-82
2022/01/19 07:09:08;;;;;;;12.20;9.23;;;;;;;;;;5038354;28;20242;-84
2022/01/19 07:11:36;;;;;;;12.67;9.23;;;;;;;;;;5032631;28;20234;-85
2022/01/19 07:14:03;;;;;;;12.80;8.40;;;;;;;;;;5032044;28;20261;-85
2022/01/19 07:16:30;;;;;;;11.93;7.50;;;;;;;;;;5032780;28;20226;-84
2022/01/19 07:18:58;;;;;;;10.07;8.00;;;;;;;;;;5032512;28;20230;-84
2022/01/19 07:24:37;;;;;;;10.30;8.07;;;;;;;;;;4993174;28;20250;-85
2022/01/19 07:27:05;;;;;;;13.83;8.87;;;;;;;;;;5032243;28;20248;-83
2022/01/19 07:29:32;;;;;;;9.70;8.20;;;;;;;;;;5033148;28;20580;-83
2022/01/19 07:31:59;;;;;;;9.90;8.20;;;;;;;;;;5034853;28;20237;-82
2022/01/19 07:34:26;;;;;;;9.83;8.07;;;;;;;;;;5034280;28;20214;-82
2022/01/19 07:36:55;;;;;;;8.67;7.57;;;;;;;;;;5033647;28;20223;-83
2022/01/19 07:39:22;;;;;;;12.77;8.97;;;;;;;;;;5034082;28;20246;-83
2022/01/19 07:41:50;;;;;;;13.13;8.33;;;;;;;;;;5033838;28;20461;-82
2022/01/19 07:44:17;;;;;;;14.83;9.23;;;;;;;;;;5033443;28;20230;-82
2022/01/19 07:46:44;;;;;;;14.83;10.43;;;;;;;;;;5033867;28;20575;-82
2022/01/19 07:49:11;;;;;;;13.77;8.77;;;;;;;;;;5035877;28;20239;-81
2022/01/19 07:51:38;;;;;;;11.73;8.80;;;;;;;;;;5035626;28;20233;-82
2022/01/19 07:54:07;;;;;;;11.90;8.20;;;;;;;;;;5035363;28;20237;-81
2022/01/19 07:56:34;;;;;;;12.17;8.87;;;;;;;;;;5034738;28;20253;-81
2022/01/19 07:59:01;;;;;;;14.23;9.63;;;;;;;;;;5033544;28;20245;-81
2022/01/19 08:01:31;;;;;;;11.70;8.57;;;;;;;;;;5034632;28;20202;-81
2022/01/19 08:03:58;;;;;;;13.13;9.13;;;;;;;;;;5033550;28;20260;-82
2022/01/19 08:06:25;;;;;;;15.40;9.17;;;;;;;;;;5033904;28;20273;-81
2022/01/19 08:08:52;;;;;;;14.03;8.83;;;;;;;;;;5038842;28;20242;-81
2022/01/19 08:11:20;;;;;;;11.23;8.83;;;;;;;;;;5037960;28;20230;-82
2022/01/19 08:13:47;;;;;;;17.80;10.37;;;;;;;;;;5036630;28;20238;-82
2022/01/19 08:16:14;;;;;;;12.50;9.33;;;;;;;;;;5037680;28;20226;-82
2022/01/19 08:18:41;;;;;;;15.43;10.40;;;;;;;;;;5037111;28;20649;-82
2022/01/19 08:21:08;;;;;;;16.90;10.93;;;;;;;;;;5033910;28;20211;-83
2022/01/19 08:23:36;;;;;;;11.13;9.33;;;;;;;;;;5031375;28;20310;-82
2022/01/19 08:26:03;;;;;;;12.27;9.60;;;;;;;;;;5036178;28;20242;-82
2022/01/19 08:28:31;;;;;;;12.57;9.27;;;;;;;;;;5021992;28;20582;-83
2022/01/19 08:30:58;;;;;;;15.97;9.00;;;;;;;;;;5023540;28;20221;-83
2022/01/19 08:33:25;;;;;;;14.00;9.67;;;;;;;;;;5036491;28;20238;-85
2022/01/19 08:35:52;;;;;;;12.20;9.30;;;;;;;;;;5035577;28;20234;-85
2022/01/19 08:38:19;;;;;;;13.60;10.30;;;;;;;;;;5034518;28;20272;-85
2022/01/19 08:40:47;;;;;;;16.97;10.13;;;;;;;;;;5035284;28;20212;-85
2022/01/19 08:43:14;;;;;;;14.93;9.30;;;;;;;;;;5034657;28;20292;-85
2022/01/19 08:45:42;;;;;;;17.30;12.17;;;;;;;;;;5038953;28;20230;-84
2022/01/19 08:48:10;;;;;;;14.57;9.83;;;;;;;;;;5034722;28;20234;-85
2022/01/19 08:50:37;;;;;;;19.37;10.30;;;;;;;;;;5034795;28;20207;-85
2022/01/19 08:53:05;;;;;;;19.97;10.03;;;;;;;;;;5016787;28;20253;-85
2022/01/19 08:55:32;;;;;;;16.97;11.90;;;;;;;;;;5016830;28;20231;-84
2022/01/19 08:57:59;;;;;;;13.80;9.13;;;;;;;;;;5016296;28;20234;-84
2022/01/19 09:00:26;;;;;;;17.83;10.47;;;;;;;;;;5017549;28;20417;-83
2022/01/19 09:02:54;;;;;;;15.53;10.63;;;;;;;;;;5015266;28;20242;-84
2022/01/19 09:05:21;;;;;;;15.10;10.50;;;;;;;;;;5035091;28;20229;-83
2022/01/19 09:07:48;;;;;;;16.80;11.00;;;;;;;;;;5034856;28;20238;-83
2022/01/19 09:10:16;;;;;;;16.70;10.97;;;;;;;;;;5036081;28;20202;-84
2022/01/19 09:12:44;;;;;;;19.53;11.43;;;;;;;;;;5036450;28;20242;-82
2022/01/19 09:15:12;;;;;;;15.23;11.23;;;;;;;;;;5036258;28;20227;-83
2022/01/19 09:17:41;;;;;;;9.07;6.77;;;;;;;;;;5054163;28;20259;-82
2022/01/19 09:20:11;;;;;;;18.27;10.27;;;;;;;;;;5045948;28;20203;-82
2022/01/19 09:22:38;;;;;;;24.10;10.87;;;;;;;;;;5038544;28;20237;-82
2022/01/19 09:25:07;;;;;;;18.30;10.50;;;;;;;;;;5037971;28;20217;-82
2022/01/19 09:27:34;;;;;;;14.13;10.60;;;;;;;;;;5035751;28;20230;-82
2022/01/19 09:30:01;;;;;;;17.83;10.70;;;;;;;;;;5035584;28;20222;-82
2022/01/19 09:32:28;;;;;;;16.47;11.33;;;;;;;;;;5034269;28;20238;-82
2022/01/19 09:35:04;;;;;;;14.67;9.67;;;;;;;;;;5034995;28;20206;-82
2022/01/19 09:37:32;;;;;;;14.23;10.20;;;;;;;;;;5034382;28;20725;-82
2022/01/19 09:40:00;;;;;;;14.60;10.77;;;;;;;;;;5035148;28;20206;-83
2022/01/19 09:42:27;;;;;;;16.73;11.97;;;;;;;;;;5036458;28;20737;-82
2022/01/19 09:44:54;;;;;;;19.87;10.60;;;;;;;;;;5051463;28;20218;-82
2022/01/19 09:47:21;;;;;;;15.83;10.50;;;;;;;;;;5043188;28;20238;-84
2022/01/19 09:49:48;;;;;;;13.57;10.60;;;;;;;;;;5037960;28;20210;-82
2022/01/19 09:52:15;;;;;;;16.93;9.73;;;;;;;;;;5037645;28;20237;-81
2022/01/19 09:54:43;;;;;;;15.20;9.07;;;;;;;;;;5035329;28;20215;-84
2022/01/19 09:57:10;;;;;;;15.80;9.37;;;;;;;;;;5033102;28;21411;-83
2022/01/19 09:59:37;;;;;;;16.77;10.23;;;;;;;;;;5034014;28;20233;-83
2022/01/19 10:02:06;;;;;;;18.10;9.53;;;;;;;;;;5036373;28;20203;-81
2022/01/19 10:04:34;;;;;;;14.17;8.87;;;;;;;;;;5037235;28;20222;-82
2022/01/19 10:07:11;;;;;;;13.33;8.33;;;;;;;;;;5036749;28;20707;-82
2022/01/19 10:09:56;;;;;;;11.07;8.30;;;;;;;;;;5037797;28;20206;-81
2022/01/19 10:17:56;;;;;;;12.87;8.43;;;;;;;;;;5017287;28;20246;-82
2022/01/19 10:20:24;;;;;;;8.30;5.03;;;;;;;;;;5035482;28;20278;-82
2022/01/19 10:22:51;;;;;;;13.03;10.13;;;;;;;;;;5035314;28;20257;-81
2022/01/19 10:27:47;;;;;;;13.27;8.20;;;;;;;;;;5045432;28;20226;-83
2022/01/19 10:30:16;;;;;;;9.80;8.23;;;;;;;;;;5059778;28;20221;-82
2022/01/19 10:32:48;;;;;;;7.73;5.27;;;;;;;;;;5060461;28;20237;-82
2022/01/19 10:35:16;;;;;;;14.10;9.13;;;;;;;;;;5058615;28;20632;-83
2022/01/19 10:37:43;;;;;;;14.03;9.67;;;;;;;;;;5076201;28;20233;-84
2022/01/19 10:40:14;;;;;;;14.17;9.07;;;;;;;;;;5075733;28;20213;-84
2022/01/19 10:42:41;;;;;;;12.77;8.33;;;;;;;;;;5076029;28;20233;-84
2022/01/19 10:45:11;;;;;;;14.33;10.03;;;;;;;;;;5075251;28;20284;-84
2022/01/19 10:47:39;;;;;;;8.53;5.60;;;;;;;;;;5072967;28;20751;-84
2022/01/19 10:50:06;;;;;;;12.20;8.50;;;;;;;;;;5073544;28;20233;-85
2022/01/19 10:52:34;;;;;;;9.37;7.17;;;;;;;;;;5072705;28;20236;-84
2022/01/19 10:55:02;;;;;;;15.17;10.87;;;;;;;;;;5077099;28;20270;-83
2022/01/19 10:57:30;;;;;;;11.90;7.73;;;;;;;;;;5074510;28;20228;-83
2022/01/19 11:00:11;;;;;;;15.43;6.23;;;;;;;;;;5074223;28;20205;-83
2022/01/19 11:02:39;;;;;;;9.53;6.40;;;;;;;;;;5074508;28;20688;-84
2022/01/19 11:05:06;;;;;;;15.37;10.43;;;;;;;;;;5073942;28;20210;-84
2022/01/19 11:07:33;;;;;;;12.67;10.10;;;;;;;;;;5073954;28;20241;-83
2022/01/19 11:10:09;;;;;;;16.07;10.33;;;;;;;;;;5074287;28;20864;-84
2022/01/19 11:12:43;;;;;;;10.27;7.97;;;;;;;;;;5072689;28;20306;-84
2022/01/19 11:15:12;;;;;;;14.20;9.17;;;;;;;;;;5072849;28;20193;-84
2022/01/19 11:17:39;;;;;;;15.07;10.17;;;;;;;;;;5053277;28;20230;-84
2022/01/19 11:20:07;;;;;;;11.40;7.40;;;;;;;;;;5053260;28;20209;-84
2022/01/19 11:22:38;;;;;;;6.50;5.17;;;;;;;;;;5052771;28;20307;-85
2022/01/19 11:25:09;;;;;;;9.47;7.43;;;;;;;;;;5053457;28;20190;-84
2022/01/19 11:27:38;;;;;;;16.53;11.13;;;;;;;;;;5055337;28;20240;-82
2022/01/19 11:30:14;;;;;;;13.97;9.50;;;;;;;;;;5059433;28;20209;-83
2022/01/19 11:32:41;;;;;;;9.40;6.07;;;;;;;;;;5059560;28;20624;-82
2022/01/19 11:35:11;;;;;;;9.93;8.17;;;;;;;;;;5059822;28;20213;-82
2022/01/19 11:37:40;;;;;;;13.83;8.40;;;;;;;;;;5060406;28;20236;-82
2022/01/19 11:40:10;;;;;;;13.07;9.27;;;;;;;;;;5060267;28;20216;-81
2022/01/19 11:42:37;;;;;;;10.77;9.17;;;;;;;;;;5053582;28;20233;-82
2022/01/19 11:45:05;;;;;;;14.27;9.47;;;;;;;;;;5059986;28;20204;-82
2022/01/19 11:47:34;;;;;;;14.40;10.27;;;;;;;;;;5059655;28;20241;-81
2022/01/19 11:50:02;;;;;;;13.37;9.77;;;;;;;;;;5061845;28;20216;-81
2022/01/19 11:52:51;;;;;;;17.13;10.00;;;;;;;;;;5060928;28;20240;-82
2022/01/19 11:55:19;;;;;;;14.27;9.87;;;;;;;;;;5060575;28;20212;-81
2022/01/19 11:57:47;;;;;;;15.13;10.17;;;;;;;;;;5059534;28;20248;-81
2022/01/19 12:00:16;;;;;;;12.03;8.87;;;;;;;;;;5060423;28;20200;-81
2022/01/19 12:02:46;;;;;;;14.40;9.27;;;;;;;;;;5059720;28;20232;-81
2022/01/19 12:05:18;;;;;;;14.07;10.23;;;;;;;;;;5057180;28;20213;-83
2022/01/19 12:07:48;;;;;;;14.83;11.13;;;;;;;;;;5058671;28;20228;-81
2022/01/19 12:10:16;;;;;;;12.73;7.00;;;;;;;;;;5078679;28;20224;-83
2022/01/19 12:12:54;;;;;;;18.20;11.33;;;;;;;;;;5067071;28;20244;-83
2022/01/19 12:15:39;;;;;;;16.07;10.50;;;;;;;;;;5057263;28;20209;-82
2022/01/19 12:18:09;;;;;;;14.30;10.70;;;;;;;;;;5057946;28;20240;-83
2022/01/19 12:20:52;;;;;;;17.53;11.30;;;;;;;;;;5058898;28;20625;-82
2022/01/19 12:23:26;;;;;;;15.93;10.63;;;;;;;;;;5056308;28;20237;-82
2022/01/19 12:25:53;;;;;;;17.20;9.37;;;;;;;;;;5056530;28;20262;-82
2022/01/19 12:28:35;;;;;;;16.20;11.00;;;;;;;;;;5056841;28;20253;-82
2022/01/19 12:31:17;;;;;;;13.30;9.43;;;;;;;;;;5056788;28;20224;-83
2022/01/19 12:33:59;;;;;;;13.37;10.13;;;;;;;;;;5056420;28;20236;-83
2022/01/19 12:36:45;;;;;;;15.93;10.57;;;;;;;;;;5056952;28;20247;-83
2022/01/19 12:39:30;;;;;;;17.50;11.60;;;;;;;;;;5057503;28;20320;-82
2022/01/19 12:41:59;;;;;;;9.90;7.23;;;;;;;;;;5057781;28;20209;-82
2022/01/19 12:44:40;;;;;;;15.87;10.80;;;;;;;;;;5058927;28;20206;-81
2022/01/19 12:47:27;;;;;;;16.13;10.47;;;;;;;;;;5058517;28;20334;-82
2022/01/19 12:49:56;;;;;;;14.93;10.50;;;;;;;;;;5058839;28;20747;-82
2022/01/19 12:52:24;;;;;;;13.20;9.13;;;;;;;;;;5060462;28;20647;-82
2022/01/19 12:54:52;;;;;;;12.13;8.87;;;;;;;;;;5074450;28;20209;-83
2022/01/19 12:57:19;;;;;;;15.33;10.70;;;;;;;;;;5080754;28;20233;-82
2022/01/19 12:59:48;;;;;;;11.80;9.07;;;;;;;;;;5075008;28;20206;-82
2022/01/19 13:02:17;;;;;;;17.83;11.60;;;;;;;;;;5091945;28;20233;-82
2022/01/19 13:04:45;;;;;;;14.73;10.00;;;;;;;;;;5093954;28;20216;-81
2022/01/19 13:07:20;;;;;;;17.23;10.63;;;;;;;;;;5094640;28;20233;-81
2022/01/19 13:10:03;;;;;;;13.70;9.83;;;;;;;;;;5094043;28;20210;-81
2022/01/19 13:12:35;;;;;;;15.60;11.20;;;;;;;;;;5088077;28;20688;-81
2022/01/19 13:15:02;;;;;;;13.53;10.70;;;;;;;;;;5093338;28;20208;-81
2022/01/19 13:17:40;;;;;;;13.53;9.17;;;;;;;;;;5095950;28;20231;-82
2022/01/19 13:20:11;;;;;;;10.13;8.80;;;;;;;;;;5096261;28;20202;-81
2022/01/19 13:22:48;;;;;;;12.70;8.53;;;;;;;;;;5096922;28;20216;-82
2022/01/19 13:25:16;;;;;;;13.57;9.53;;;;;;;;;;5096436;28;20234;-82
2022/01/19 13:27:43;;;;;;;10.67;7.73;;;;;;;;;;5094626;28;20247;-82
2022/01/19 13:30:12;;;;;;;13.20;8.77;;;;;;;;;;5094315;28;20208;-81
2022/01/19 13:32:39;;;;;;;13.83;9.93;;;;;;;;;;5091266;28;20229;-81
2022/01/19 13:35:08;;;;;;;14.43;9.53;;;;;;;;;;5092687;28;20214;-82
2022/01/19 13:37:37;;;;;;;12.70;8.83;;;;;;;;;;5080137;28;20300;-82
2022/01/19 13:40:07;;;;;;;17.70;11.50;;;;;;;;;;5070879;28;20294;-81
2022/01/19 13:42:40;;;;;;;17.67;10.37;;;;;;;;;;5064229;28;20239;-81
2022/01/19 13:45:18;;;;;;;13.57;9.20;;;;;;;;;;5066364;28;20206;-81
2022/01/19 13:47:52;;;;;;;12.87;9.20;;;;;;;;;;5063477;28;20234;-81
2022/01/19 13:50:20;;;;;;;15.63;10.17;;;;;;;;;;5065034;28;20208;-81
2022/01/19 13:52:47;;;;;;;11.23;8.07;;;;;;;;;;5067480;28;20252;-82
2022/01/19 13:55:19;;;;;;;14.83;8.67;;;;;;;;;;5072185;28;20202;-81
2022/01/19 13:57:46;;;;;;;13.30;8.37;;;;;;;;;;5062708;28;20647;-82
2022/01/19 14:00:15;;;;;;;13.77;9.73;;;;;;;;;;5067682;28;20204;-82
2022/01/19 14:02:42;;;;;;;11.77;9.03;;;;;;;;;;5083449;28;20269;-81
2022/01/19 14:05:09;;;;;;;17.03;9.63;;;;;;;;;;5081730;28;20208;-82
2022/01/19 14:07:46;;;;;;;14.80;9.63;;;;;;;;;;5081835;28;20237;-81
2022/01/19 14:10:13;;;;;;;13.87;8.47;;;;;;;;;;5082064;28;20212;-82
2022/01/19 14:12:42;;;;;;;12.33;9.57;;;;;;;;;;5072869;28;20233;-81
2022/01/19 14:15:11;;;;;;;15.57;10.10;;;;;;;;;;5062020;28;20615;-82
2022/01/19 14:17:41;;;;;;;13.80;8.53;;;;;;;;;;5065039;28;20286;-81
2022/01/19 14:20:15;;;;;;;12.30;8.80;;;;;;;;;;5065589;28;20243;-81
2022/01/19 14:22:42;;;;;;;16.40;9.93;;;;;;;;;;5062231;28;20297;-81
2022/01/19 14:25:10;;;;;;;8.50;6.77;;;;;;;;;;5062183;28;20298;-81
2022/01/19 14:27:43;;;;;;;12.03;8.30;;;;;;;;;;5061631;28;20235;-80
2022/01/19 14:30:16;;;;;;;8.13;7.20;;;;;;;;;;5062837;28;20210;-82
2022/01/19 14:32:44;;;;;;;7.47;6.20;;;;;;;;;;5061591;28;20233;-81
2022/01/19 14:35:31;;;;;;;12.53;9.00;;;;;;;;;;5064953;28;20204;-81
2022/01/19 14:38:00;;;;;;;11.87;9.17;;;;;;;;;;5062496;28;20233;-81
2022/01/19 14:40:28;;;;;;;8.17;6.80;;;;;;;;;;5063385;28;20205;-80
2022/01/19 14:42:57;;;;;;;11.27;8.60;;;;;;;;;;5066069;28;20231;-81
2022/01/19 14:45:27;;;;;;;11.43;7.10;;;;;;;;;;5066446;28;20212;-81
2022/01/19 14:47:55;;;;;;;14.13;10.23;;;;;;;;;;5063876;28;20233;-80
2022/01/19 14:50:23;;;;;;;7.73;6.20;;;;;;;;;;5063924;28;20206;-80
2022/01/19 14:52:52;;;;;;;8.77;6.53;;;;;;;;;;5065192;28;20234;-80
2022/01/19 14:55:19;;;;;;;13.83;8.90;;;;;;;;;;5066483;28;20208;-81
2022/01/19 14:57:47;;;;;;;12.33;9.03;;;;;;;;;;5063595;28;20272;-82
2022/01/19 15:00:17;;;;;;;9.83;6.83;;;;;;;;;;5063306;28;20208;-84
2022/01/19 15:02:46;;;;;;;14.10;8.90;;;;;;;;;;5059621;28;20244;-83
2022/01/19 15:05:13;;;;;;;15.30;10.30;;;;;;;;;;5060710;28;20205;-83
2022/01/19 15:07:41;;;;;;;13.23;9.00;;;;;;;;;;5058676;28;20750;-84
2022/01/19 15:10:09;;;;;;;15.67;10.23;;;;;;;;;;5058268;28;20197;-83
2022/01/19 15:12:38;;;;;;;14.03;9.07;;;;;;;;;;5058394;28;20252;-81
2022/01/19 15:15:06;;;;;;;17.47;10.80;;;;;;;;;;5062197;28;20247;-81
2022/01/19 15:17:34;;;;;;;16.53;11.13;;;;;;;;;;5060046;28;20690;-81
2022/01/19 15:20:02;;;;;;;19.40;10.60;;;;;;;;;;5060215;28;20204;-82
2022/01/19 15:22:29;;;;;;;13.10;9.53;;;;;;;;;;5060365;28;20229;-82
2022/01/19 15:24:56;;;;;;;16.37;10.63;;;;;;;;;;5060625;28;20387;-83
2022/01/19 15:27:24;;;;;;;17.97;10.53;;;;;;;;;;5061670;28;20308;-83
2022/01/19 15:29:51;;;;;;;17.40;10.47;;;;;;;;;;5062049;28;20198;-82
2022/01/19 15:32:19;;;;;;;17.47;11.30;;;;;;;;;;5061922;28;20239;-83
2022/01/19 15:34:48;;;;;;;15.10;10.37;;;;;;;;;;5061093;28;20237;-81
2022/01/19 15:37:15;;;;;;;17.33;10.13;;;;;;;;;;5056234;28;20292;-80
2022/01/19 15:39:46;;;;;;;18.57;10.87;;;;;;;;;;5058695;28;20244;-82
2022/01/19 15:42:14;;;;;;;16.30;10.87;;;;;;;;;;5053971;28;20243;-84
2022/01/19 15:44:41;;;;;;;18.37;11.30;;;;;;;;;;5052829;28;20623;-84
2022/01/19 15:47:08;;;;;;;18.73;11.60;;;;;;;;;;5052258;28;20227;-83
2022/01/19 15:49:35;;;;;;;15.67;10.93;;;;;;;;;;5056144;28;20208;-80
2022/01/19 15:52:04;;;;;;;20.20;12.70;;;;;;;;;;5056152;28;20210;-82
2022/01/19 15:54:32;;;;;;;21.80;11.80;;;;;;;;;;5053214;28;20240;-84
2022/01/19 15:57:00;;;;;;;16.33;9.27;;;;;;;;;;5052188;28;20248;-83
2022/01/19 15:59:27;;;;;;;17.50;10.20;;;;;;;;;;5053561;28;20206;-83